Time;durP1;ratioP1;P1;durP2;ratioP2;P2;SDS_P1;SDS_P2;PMS_P1;PMS_P2;Temp;Humidity;BMP_temperature;BMP_pressure;BME280_temperature;BME280_humidity;BME280_pressure;Samples;Min_cycle;Max_cycle;Signal;HPM_P1;HPM_P2
2022/10/24 00:07:49;;;;;;;25.67;10.43;;;11.20;99.90;;;;;;21137979;27;20027;-59
2022/10/24 00:17:52;;;;;;;23.40;10.20;;;11.40;99.90;;;;;;21137899;27;20096;-65
2022/10/24 00:28:00;;;;;;;24.85;10.25;;;11.20;99.90;;;;;;21151766;27;20031;-63
2022/10/24 00:38:02;;;;;;;25.52;7.82;;;11.50;99.90;;;;;;21120477;27;20542;-62
2022/10/24 00:48:27;;;;;;;23.20;8.82;;;11.50;99.90;;;;;;21135800;27;20060;-59
2022/10/24 00:58:34;;;;;;;26.65;8.77;;;11.70;99.90;;;;;;21118744;27;20044;-62
2022/10/24 01:08:51;;;;;;;20.95;8.20;;;11.70;99.90;;;;;;21122293;28;20040;-62
2022/10/24 01:19:19;;;;;;;21.60;8.18;;;11.60;99.90;;;;;;21117981;28;20040;-59
2022/10/24 01:30:00;;;;;;;21.08;8.10;;;11.60;99.90;;;;;;21150044;28;20040;-59
2022/10/24 01:40:13;;;;;;;19.95;7.13;;;11.40;99.90;;;;;;21140777;27;20112;-59
2022/10/24 01:50:19;;;;;;;24.38;8.43;;;11.50;99.90;;;;;;21132691;27;20052;-62
2022/10/24 02:00:23;;;;;;;25.35;7.93;;;11.40;99.90;;;;;;21132320;27;20031;-63
2022/10/24 02:10:29;;;;;;;20.23;8.10;;;11.60;99.90;;;;;;21147749;27;20040;-63
2022/10/24 02:20:42;;;;;;;19.67;7.90;;;11.80;99.90;;;;;;21146985;27;20032;-63
2022/10/24 02:30:59;;;;;;;20.98;8.05;;;11.80;99.90;;;;;;21146625;27;20561;-59
2022/10/24 02:41:07;;;;;;;23.85;8.75;;;11.60;99.90;;;;;;21145816;27;20495;-59
2022/10/24 02:51:13;;;;;;;21.25;8.20;;;11.50;99.90;;;;;;21143716;27;20043;-59
2022/10/24 03:01:15;;;;;;;26.50;9.52;;;11.60;99.90;;;;;;21144311;27;20081;-63
2022/10/24 03:11:18;;;;;;;25.85;10.13;;;11.60;99.90;;;;;;21143302;27;20031;-59
2022/10/24 03:21:21;;;;;;;24.50;10.18;;;11.60;99.90;;;;;;21125499;27;20433;-63
2022/10/24 03:31:24;;;;;;;21.63;9.57;;;11.80;99.90;;;;;;21141797;27;20104;-63
2022/10/24 03:41:27;;;;;;;18.38;8.85;;;12.10;99.90;;;;;;21140726;27;20064;-63
2022/10/24 03:51:29;;;;;;;27.38;11.00;;;12.30;99.90;;;;;;21140562;27;20044;-63
2022/10/24 04:01:32;;;;;;;24.98;9.73;;;12.60;99.90;;;;;;21122946;27;20040;-59
2022/10/24 04:11:34;;;;;;;24.85;11.15;;;12.50;99.90;;;;;;21138175;27;20089;-59
2022/10/24 04:21:37;;;;;;;24.45;11.95;;;12.40;99.90;;;;;;21138592;27;20062;-59
2022/10/24 04:31:40;;;;;;;25.80;12.18;;;12.30;99.90;;;;;;21137849;27;20040;-63
2022/10/24 04:41:43;;;;;;;20.42;9.82;;;12.10;99.90;;;;;;21135992;27;20035;-59
2022/10/24 04:51:46;;;;;;;23.30;10.50;;;11.90;99.90;;;;;;21136579;27;20105;-60
2022/10/24 05:01:48;;;;;;;19.20;9.45;;;11.80;99.90;;;;;;21102226;28;20085;-63
2022/10/24 05:11:54;;;;;;;22.83;11.82;;;11.60;99.90;;;;;;21136775;27;20090;-59
2022/10/24 05:21:56;;;;;;;20.83;11.77;;;11.60;99.90;;;;;;21151665;27;20044;-59
2022/10/24 05:31:58;;;;;;;19.23;10.15;;;11.60;99.90;;;;;;21134432;27;20058;-59
2022/10/24 05:42:01;;;;;;;24.23;10.88;;;11.40;99.90;;;;;;21150063;27;20045;-61
2022/10/24 05:52:04;;;;;;;28.35;12.73;;;11.20;99.90;;;;;;21149661;27;20031;-61
2022/10/24 06:02:09;;;;;;;21.50;10.50;;;11.40;99.90;;;;;;21148919;27;20549;-61
2022/10/24 06:12:12;;;;;;;22.10;10.30;;;11.40;99.90;;;;;;21131193;27;20472;-65
2022/10/24 06:22:14;;;;;;;20.42;10.55;;;11.50;99.90;;;;;;21146877;27;20108;-61
2022/10/24 06:32:16;;;;;;;17.15;9.18;;;11.70;99.90;;;;;;21164621;27;20043;-65
2022/10/24 06:42:19;;;;;;;16.85;8.82;;;11.60;99.90;;;;;;21128698;27;20442;-61
2022/10/24 06:52:22;;;;;;;20.33;8.95;;;11.70;99.90;;;;;;21128286;27;20096;-61
2022/10/24 07:02:25;;;;;;;21.88;9.77;;;12.00;99.90;;;;;;21127577;27;20040;-61
2022/10/24 07:12:27;;;;;;;18.70;8.57;;;12.50;99.90;;;;;;21143503;27;20400;-67
2022/10/24 07:22:29;;;;;;;19.30;9.68;;;13.20;99.90;;;;;;21142613;27;20036;-66
2022/10/24 07:32:32;;;;;;;24.52;10.73;;;13.60;99.90;;;;;;21142053;27;20035;-66
2022/10/24 07:42:35;;;;;;;27.88;11.20;;;14.20;99.90;;;;;;21124060;27;20453;-60
2022/10/24 07:52:38;;;;;;;17.85;8.43;;;14.70;99.90;;;;;;21140305;27;20069;-67
2022/10/24 08:02:41;;;;;;;18.60;9.77;;;15.40;99.90;;;;;;21139221;27;20035;-62
2022/10/24 08:12:43;;;;;;;20.67;9.57;;;15.40;99.90;;;;;;21138259;27;20057;-63
2022/10/24 08:22:46;;;;;;;17.10;9.07;;;15.70;99.90;;;;;;21136749;27;20125;-60
2022/10/24 08:32:49;;;;;;;18.42;9.32;;;15.70;99.90;;;;;;21137015;27;20104;-66
2022/10/24 08:42:51;;;;;;;19.75;9.02;;;15.10;99.90;;;;;;21136167;27;20454;-62
2022/10/24 08:53:13;;;;;;;19.05;8.77;;;15.40;99.90;;;;;;21135039;28;20093;-68
2022/10/24 09:03:42;;;;;;;17.92;7.97;;;16.40;99.90;;;;;;21118987;27;20092;-68
2022/10/24 09:13:46;;;;;;;21.10;7.88;;;16.90;99.90;;;;;;21135003;28;20077;-62
2022/10/24 09:23:50;;;;;;;15.73;8.43;;;16.40;99.90;;;;;;21134438;28;20406;-64
2022/10/24 09:33:55;;;;;;;16.13;8.30;;;15.90;99.90;;;;;;21134331;28;20123;-61
2022/10/24 09:44:00;;;;;;;18.10;9.15;;;15.50;99.90;;;;;;21116679;28;20104;-65
2022/10/24 09:54:18;;;;;;;20.35;10.00;;;15.00;99.90;;;;;;21133268;28;20044;-58
2022/10/24 10:04:20;;;;;;;16.27;6.88;;;14.90;99.90;;;;;;21128002;27;20529;-66
2022/10/24 10:14:27;;;;;;;26.10;8.20;;;15.30;99.90;;;;;;21148164;27;20525;-65
2022/10/24 10:24:42;;;;;;;17.60;6.78;;;16.20;99.90;;;;;;21127814;27;20035;-62
2022/10/24 10:35:21;;;;;;;19.10;8.07;;;16.70;99.90;;;;;;21129282;27;20035;-66
2022/10/24 10:45:46;;;;;;;18.40;8.63;;;16.20;99.90;;;;;;21145870;27;20043;-62
2022/10/24 10:55:58;;;;;;;22.30;9.30;;;15.50;99.90;;;;;;21144906;27;20097;-66
2022/10/24 11:06:17;;;;;;;23.92;9.00;;;15.20;99.90;;;;;;21127222;27;20039;-62
2022/10/24 11:16:40;;;;;;;17.23;8.10;;;16.00;99.90;;;;;;21142737;27;20035;-66
2022/10/24 11:27:02;;;;;;;21.40;8.20;;;16.30;99.90;;;;;;21122468;27;20385;-62
2022/10/24 11:37:26;;;;;;;18.13;6.95;;;16.60;99.90;;;;;;21137773;27;20031;-61
2022/10/24 11:48:01;;;;;;;16.67;8.13;;;17.00;99.90;;;;;;21107585;27;20047;-62
2022/10/24 11:58:21;;;;;;;21.75;6.78;;;17.60;99.90;;;;;;21124019;27;20412;-62
2022/10/24 12:08:25;;;;;;;17.20;8.20;;;17.90;99.90;;;;;;21142827;27;20455;-62
2022/10/24 12:18:36;;;;;;;17.60;7.03;;;17.90;99.90;;;;;;21138359;27;20414;-66
2022/10/24 12:28:40;;;;;;;22.25;10.25;;;17.90;99.90;;;;;;21123878;27;20604;-61
2022/10/24 12:39:01;;;;;;;22.90;11.32;;;16.50;99.90;;;;;;21136934;27;20036;-62
2022/10/24 12:49:09;;;;;;;23.60;11.43;;;16.00;99.90;;;;;;21131829;27;20477;-65
2022/10/24 12:59:43;;;;;;;16.47;9.60;;;16.10;99.90;;;;;;21135742;27;20035;-60
2022/10/24 13:10:19;;;;;;;17.35;8.95;;;16.00;99.90;;;;;;21139056;28;20064;-64
2022/10/24 13:20:29;;;;;;;22.50;10.70;;;15.60;99.90;;;;;;21134608;28;20089;-61
2022/10/24 13:30:32;;;;;;;30.85;12.30;;;15.10;99.90;;;;;;21131103;28;20027;-64
2022/10/24 13:40:35;;;;;;;27.42;12.73;;;14.90;99.90;;;;;;21148491;27;20027;-65
2022/10/24 13:51:00;;;;;;;19.67;11.25;;;14.70;99.90;;;;;;21198671;27;20055;-64
2022/10/24 14:01:10;;;;;;;21.67;10.35;;;14.40;99.90;;;;;;21212416;27;20035;-64
2022/10/24 14:11:31;;;;;;;21.60;9.40;;;14.20;99.90;;;;;;21257560;27;20023;-61
2022/10/24 14:21:40;;;;;;;18.60;10.57;;;14.20;99.90;;;;;;21221555;27;20027;-65
2022/10/24 14:31:44;;;;;;;19.30;10.00;;;14.20;99.90;;;;;;21227132;27;20089;-62
2022/10/24 14:41:47;;;;;;;21.73;9.20;;;14.10;99.90;;;;;;21222120;27;20065;-61
2022/10/24 14:51:53;;;;;;;19.23;8.98;;;13.90;99.90;;;;;;21188859;27;20035;-62
2022/10/24 15:02:36;;;;;;;17.45;8.93;;;13.70;99.90;;;;;;21228541;27;20414;-61
2022/10/24 15:13:13;;;;;;;21.27;9.95;;;13.60;99.90;;;;;;21218863;27;20465;-59
2022/10/24 15:23:23;;;;;;;23.83;11.27;;;13.70;99.90;;;;;;20888724;28;20430;-62
2022/10/24 15:33:26;;;;;;;26.97;13.57;;;13.60;99.90;;;;;;20894282;28;20048;-65
2022/10/24 15:43:28;;;;;;;27.75;13.80;;;13.50;99.90;;;;;;20891544;28;20041;-62
2022/10/24 15:53:31;;;;;;;28.98;14.50;;;13.40;99.90;;;;;;20996297;27;20080;-61
2022/10/24 16:03:35;;;;;;;23.58;14.23;;;13.30;99.90;;;;;;21218935;27;20047;-65
2022/10/24 16:13:38;;;;;;;29.58;15.90;;;13.20;99.90;;;;;;21215432;27;20096;-62
2022/10/24 16:23:41;;;;;;;34.90;15.77;;;13.10;99.90;;;;;;21199784;27;20088;-63
2022/10/24 16:33:45;;;;;;;26.80;15.75;;;13.00;99.90;;;;;;21216977;27;20035;-59
2022/10/24 16:43:49;;;;;;;25.73;15.05;;;13.00;99.90;;;;;;21222497;27;20198;-63
2022/10/24 16:53:51;;;;;;;32.22;16.75;;;12.80;99.90;;;;;;21209548;27;20045;-63
2022/10/24 17:03:54;;;;;;;25.98;12.93;;;12.70;99.90;;;;;;21198435;27;20043;-63
2022/10/24 17:13:57;;;;;;;18.63;10.98;;;12.70;99.90;;;;;;21195990;27;20166;-63
2022/10/24 17:24:00;;;;;;;20.80;10.32;;;12.60;99.90;;;;;;21207887;28;20061;-61
2022/10/24 17:34:03;;;;;;;20.98;10.18;;;12.50;99.90;;;;;;21213896;28;20032;-63
2022/10/24 17:44:11;;;;;;;19.48;9.15;;;12.40;99.90;;;;;;21211980;28;20043;-63
2022/10/24 17:54:14;;;;;;;24.75;9.57;;;12.50;99.90;;;;;;21212498;28;20039;-63
2022/10/24 18:04:17;;;;;;;19.80;10.43;;;12.60;99.90;;;;;;21211007;28;20482;-59
2022/10/24 18:14:20;;;;;;;19.17;10.68;;;12.70;99.90;;;;;;21209999;28;20479;-59
2022/10/24 18:24:23;;;;;;;24.83;12.52;;;12.60;99.90;;;;;;21218945;27;20108;-59
2022/10/24 18:34:26;;;;;;;24.70;13.63;;;12.60;99.90;;;;;;21226981;27;20441;-59
2022/10/24 18:44:33;;;;;;;28.60;14.75;;;12.70;99.90;;;;;;21180553;27;20033;-60
2022/10/24 18:54:43;;;;;;;29.08;14.43;;;12.70;99.90;;;;;;21078221;28;20039;-60
2022/10/24 19:04:52;;;;;;;25.85;13.90;;;12.70;99.90;;;;;;21077657;28;20087;-59
2022/10/24 19:14:56;;;;;;;29.90;14.67;;;12.80;99.90;;;;;;21080855;28;20096;-59
2022/10/24 19:24:58;;;;;;;35.15;17.08;;;12.80;99.90;;;;;;21059183;28;20069;-59
2022/10/24 19:35:10;;;;;;;39.10;17.90;;;12.80;99.90;;;;;;21059129;28;20077;-59
2022/10/24 19:45:13;;;;;;;30.65;15.93;;;12.80;99.90;;;;;;21103408;27;20035;-59
2022/10/24 19:55:16;;;;;;;30.20;17.27;;;12.80;99.90;;;;;;21140115;27;20035;-59
2022/10/24 20:05:18;;;;;;;32.38;17.15;;;12.70;99.90;;;;;;21140038;27;20039;-59
2022/10/24 20:15:22;;;;;;;31.35;16.58;;;12.70;99.90;;;;;;21142804;27;20043;-59
2022/10/24 20:25:25;;;;;;;26.75;16.63;;;12.60;99.90;;;;;;21104710;27;20031;-59
2022/10/24 20:35:28;;;;;;;26.40;17.10;;;12.70;99.90;;;;;;21120492;27;20040;-63
2022/10/24 20:45:33;;;;;;;36.17;18.63;;;12.80;99.90;;;;;;21135788;27;20051;-63
2022/10/24 20:55:37;;;;;;;38.92;19.92;;;12.80;99.90;;;;;;21135569;27;20405;-63
2022/10/24 21:05:40;;;;;;;45.95;21.48;;;12.60;99.90;;;;;;21133253;27;20032;-64
2022/10/24 21:15:43;;;;;;;36.42;18.63;;;12.70;99.90;;;;;;21134195;28;20040;-59
2022/10/24 21:25:45;;;;;;;34.65;18.63;;;12.60;99.90;;;;;;21134400;28;20039;-59
2022/10/24 21:35:48;;;;;;;33.47;17.40;;;12.40;99.90;;;;;;21117187;28;20058;-60
2022/10/24 21:45:50;;;;;;;27.25;16.35;;;12.40;99.90;;;;;;21133913;28;20496;-64
2022/10/24 21:55:59;;;;;;;36.67;18.30;;;12.40;99.90;;;;;;21138363;27;20031;-63
2022/10/24 22:06:02;;;;;;;27.55;15.25;;;12.40;99.90;;;;;;21149037;27;20039;-63
2022/10/24 22:16:08;;;;;;;31.27;16.52;;;12.40;99.90;;;;;;21143973;27;20039;-59
2022/10/24 22:26:13;;;;;;;33.40;14.98;;;12.50;99.90;;;;;;21147358;27;20104;-64
2022/10/24 22:36:27;;;;;;;24.77;14.43;;;12.50;99.90;;;;;;21146053;27;20039;-59
2022/10/24 22:47:05;;;;;;;30.25;15.35;;;12.60;99.90;;;;;;21129146;27;20055;-63
2022/10/24 22:57:08;;;;;;;29.77;14.75;;;12.60;99.90;;;;;;21149372;27;20118;-59
2022/10/24 23:07:23;;;;;;;33.00;16.70;;;12.60;99.90;;;;;;21126875;27;20500;-64
2022/10/24 23:28:17;;;;;;;31.25;17.13;;;12.50;99.90;;;;;;21125932;27;20097;-65
2022/10/24 23:38:38;;;;;;;31.83;17.20;;;12.60;99.90;;;;;;21130518;27;20493;-66
2022/10/24 23:49:00;;;;;;;36.28;18.60;;;12.50;99.90;;;;;;21141844;27;20419;-61
2022/10/24 23:59:02;;;;;;;33.35;16.60;;;12.50;99.90;;;;;;21128992;27;20061;-66
